METAR (acronimo di METeorological Air Report) è un messaggio meteo emesso nella maggior parte dei casi in ambito aeroportuale

SVMI - Caracas Simón Bolívar International Airport, Venezuela
Ultimo Aggiornamento: Venerdì 18 Ottobre 2019 15:00 CEST
Qualche Nuvola
Qualche Nuvola
 Wind from calm
Vento: Calma
Temperatura: 26°C
Punto di Rugiada: 24°C
Umidità: 89%
Barometro: 1013 hPa
Nuvole: Qualche Nuvola
Visibilità: 10 km
Nuvole nel Dettaglio: Qualche Nuvola 488 m
2019/10/18 13:00 SVMI 181300Z 00000KT 9999 FEW016 26/24 Q1013
SKBO - Bogotá El Dorado International Airport, Colombia
Ultimo Aggiornamento: Venerdì 18 Ottobre 2019 15:00 CEST
Parzialmente Nuvoloso
Parzialmente Nuvoloso
 Wind from varies
Vento: variabile 4 km/h
Temperatura: 16°C
Punto di Rugiada: 10°C
Umidità: 68%
Barometro: 1028.4 hPa
Nuvole: Parzialmente Nuvoloso
Visibilità: 10 km
Nuvole nel Dettaglio: Qualche Nuvola 610 m
Parzialmente Nuvoloso 6096 m
2019/10/18 13:00 SKBO 181300Z VRB02KT 9999 FEW020 SCT200 16/10 A3037 NOSIG
TFFF - Fort-de-France Martinique Aimé Césaire International Airport, Martinique
Ultimo Aggiornamento: Venerdì 18 Ottobre 2019 15:30 CEST
Sereno
Sereno
 Wind from Nord-Nord-Ovest
Vento: Nord-Nord-Ovest 4 km/h
Temperatura: 26°C
Punto di Rugiada: 25°C
Umidità: 94%
Barometro: 1014 hPa
Condizioni: Sereno
Visibilità: superiore a 10 km
2019/10/18 13:30 TFFF 181330Z AUTO 34002KT CAVOK 26/25 Q1014 TEMPO VRB15G25KT 3000 SHRA BKN016TCU
 
SEQM - Quito Mariscal Sucre International Airport, Ecuador
Ultimo Aggiornamento: Venerdì 18 Ottobre 2019 15:00 CEST
Parzialmente Nuvoloso
Parzialmente Nuvoloso
 Wind from Sud
Vento: Sud 6 km/h
Temperatura: 15°C
Punto di Rugiada: 10°C
Umidità: 72%
Barometro: 1028 hPa
Nuvole: Parzialmente Nuvoloso
Visibilità: 10 km
Nuvole nel Dettaglio: Qualche Nuvola 610 m
Parzialmente Nuvoloso 2438 m
2019/10/18 13:00 SEQM 181300Z 18003KT 9999 FEW020 SCT080 15/10 Q1028 NOSIG RMK A3036
SEGS - Baltra Island, Galápagos, Ecuador
Ultimo Aggiornamento: Venerdì 18 Ottobre 2019 15:00 CEST
Prevalentemente Nuvoloso
Prevalentemente Nuvoloso
 Wind from Ovest
Vento: Ovest 6 km/h
Temperatura: 21°C
Punto di Rugiada: 17°C
Umidità: 78%
Barometro: 1015 hPa
Nuvole: Prevalentemente Nuvoloso
Visibilità: 10 km
Nuvole nel Dettaglio: Prevalentemente Nuvoloso 610 m
2019/10/18 13:00 SEGS 181300Z 28003KT 9999 BKN020 21/17 Q1015 A3000
SPJC - Lima Jorge Chvez International Airport, Peru
Ultimo Aggiornamento: Venerdì 18 Ottobre 2019 15:00 CEST
Nuvoloso
Nuvoloso
 Wind from Ovest-Nord-Ovest
Vento: Ovest-Nord-Ovest 11 km/h
Temperatura: 18°C
Punto di Rugiada: 15°C
Umidità: 83%
Barometro: 1015 hPa
Nuvole: Nuvoloso
Visibilità: 8 km
Nuvole nel Dettaglio: Nuvoloso 427 m
2019/10/18 13:00 SPJC 181300Z 29006KT 260V330 8000 OVC014 18/15 Q1015 NOSIG RMK PP000
 
SLLP - La Paz El Alto International Airport, Bolivia
Ultimo Aggiornamento: Venerdì 18 Ottobre 2019 15:00 CEST
Pioggia Leggera, Prevalentemente Nuvoloso
Pioggia Leggera, Prevalentemente Nuvoloso
 Wind from Nord-Nord-Est
Vento: Nord-Nord-Est 19 km/h
Temperatura: 5°C
Wind Chill: 1°C
Punto di Rugiada: 2°C
Umidità: 81%
Barometro: 1039 hPa
Condizioni: Pioggia Leggera
Nuvole: Prevalentemente Nuvoloso
Visibilità: 6 km
Nuvole nel Dettaglio: Qualche Nuvola 122 m
Parzialmente Nuvoloso 396 m
Qualche Nuvola 518 m
Prevalentemente Nuvoloso 2134 m
2019/10/18 13:00 SLLP 181300Z 03010KT 6000 -RA FEW004 SCT013 FEW017CB BKN070 05/02 Q1039
SBBR - Brasilia International Airport, Brazil
Ultimo Aggiornamento: Venerdì 18 Ottobre 2019 15:00 CEST
Sereno
Sereno
 Wind from Est-Nord-Est
Vento: Est-Nord-Est 13 km/h
Temperatura: 28°C
Punto di Rugiada: 12°C
Umidità: 37%
Barometro: 1021 hPa
Condizioni: Sereno
Visibilità: superiore a 10 km
2019/10/18 13:00 SBBR 181300Z 06007KT CAVOK 28/12 Q1021
SCEL - Santiago Comodoro Arturo Merino Benitez International Airport, Chile
Ultimo Aggiornamento: Venerdì 18 Ottobre 2019 15:00 CEST
Parzialmente Nuvoloso
Parzialmente Nuvoloso
 Wind from varies
Vento: variabile 6 km/h
Temperatura: 14°C
Punto di Rugiada: 6°C
Umidità: 59%
Barometro: 1017 hPa
Nuvole: Parzialmente Nuvoloso
Visibilità: 8 km
2019/10/18 13:00 SCEL 181300Z VRB03KT 8000 NSC 14/06 Q1017 NOSIG
 
SCCI - Punta Arenas Presidente Carlos Ibañez del Campo International Airport, Chile
Ultimo Aggiornamento: Venerdì 18 Ottobre 2019 15:00 CEST
Prevalentemente Nuvoloso
Prevalentemente Nuvoloso
 Wind from Ovest-Nord-Ovest
Vento: Ovest-Nord-Ovest 22 km/h
Temperatura: 7°C
Wind Chill: 4°C
Punto di Rugiada: -1°C
Umidità: 57%
Barometro: 1010 hPa
Nuvole: Prevalentemente Nuvoloso
Visibilità: 10 km
Nuvole nel Dettaglio: Parzialmente Nuvoloso 1311 m
Prevalentemente Nuvoloso 4572 m
2019/10/18 13:00 SCCI 181300Z 29012KT 9999 SCT043 BKN150 07/M01 Q1010 NOSIG
SCIP - Easter Island Mataveri International Airport, Chile
Ultimo Aggiornamento: Venerdì 18 Ottobre 2019 15:00 CEST
Parzialmente Nuvoloso
Parzialmente Nuvoloso
 Wind from Nord
Vento: Nord 7 km/h
Temperatura: 18°C
Punto di Rugiada: 15°C
Umidità: 83%
Barometro: 1024 hPa
Nuvole: Parzialmente Nuvoloso
Visibilità: 10 km
Nuvole nel Dettaglio: Parzialmente Nuvoloso 762 m
2019/10/18 13:00 SCIP 181300Z 01004KT 9999 SCT025 18/15 Q1024 NOSIG
SAEZ - Buenos Aires Ministro Pistarini International Airport, Argentina
Ultimo Aggiornamento: Venerdì 18 Ottobre 2019 15:00 CEST
Sereno
Sereno
 Wind from Sud-Ovest
Vento: Sud-Ovest 15 km/h
Temperatura: 19°C
Punto di Rugiada: 14°C
Umidità: 73%
Barometro: 1018 hPa
Condizioni: Sereno
Visibilità: superiore a 10 km
2019/10/18 13:00 SAEZ 181300Z 23008KT CAVOK 19/14 Q1018 TEMPO 24015G25KT
 
SAZM - Mar del Plata Astor Piazzolla International Airport, Argentina
Ultimo Aggiornamento: Venerdì 18 Ottobre 2019 15:00 CEST
Prevalentemente Nuvoloso
Prevalentemente Nuvoloso
 Wind from Ovest-Sud-Ovest
Vento: Ovest-Sud-Ovest 28 km/h, Raffica: 50 km/h
Temperatura: 14°C
Punto di Rugiada: 10°C
Umidità: 77%
Barometro: 1013 hPa
Nuvole: Prevalentemente Nuvoloso
Visibilità: 10 km
Nuvole nel Dettaglio: Prevalentemente Nuvoloso 549 m
2019/10/18 13:00 SAZM 181300Z 24015G27KT 210V290 9999 BKN018 14/10 Q1013
SAWH - Ushuaia-Malvinas Argentinas International Airport, Argentina
Ultimo Aggiornamento: Venerdì 18 Ottobre 2019 15:00 CEST
Parzialmente Nuvoloso
Parzialmente Nuvoloso
 Wind from Sud-Ovest
Vento: Sud-Ovest 31 km/h
Temperatura: 6°C
Wind Chill: 1°C
Punto di Rugiada: 1°C
Umidità: 71%
Barometro: 1008 hPa
Nuvole: Parzialmente Nuvoloso
Visibilità: 10 km
Nuvole nel Dettaglio: Parzialmente Nuvoloso 1463 m
2019/10/18 13:00 SAWH 181300Z 23017KT 9999 SCT048 06/01 Q1008
EGYP - Stanley RAF Mount Pleasant, Falkland Islands
Ultimo Aggiornamento: Venerdì 18 Ottobre 2019 15:20 CEST
Pioggia Leggera, Prevalentemente Nuvoloso
Pioggia Leggera, Prevalentemente Nuvoloso
 Wind from Ovest
Vento: Ovest 37 km/h
Temperatura: 6°C
Wind Chill: 1°C
Punto di Rugiada: 6°C
Umidità: 100%
Barometro: 1003 hPa
Condizioni: Pioggia Leggera
Nuvole: Prevalentemente Nuvoloso
Visibilità: 10 km
Nuvole nel Dettaglio: Qualche Nuvola 213 m
Prevalentemente Nuvoloso 274 m
2019/10/18 13:20 EGYP 181320Z 27020KT 9999 -RA FEW007 BKN009 06/06 Q1003 TEMPO 6000 RA SCT006